Time;durP1;ratioP1;P1;durP2;ratioP2;P2;SDS_P1;SDS_P2;PMS_P1;PMS_P2;Temp;Humidity;BMP_temperature;BMP_pressure;BME280_temperature;BME280_humidity;BME280_pressure;Samples;Min_cycle;Max_cycle;Signal;HPM_P1;HPM_P2
2023/12/23 00:00:41;;;;;;;8.50;1.60;;;7.40;88.50;;;;;;9176869;19;20497;-71
2023/12/23 00:03:48;;;;;;;19.98;2.28;;;7.40;88.50;;;;;;9168999;19;20017;-69
2023/12/23 00:06:57;;;;;;;22.23;3.03;;;7.40;88.50;;;;;;9174164;19;20011;-72
2023/12/23 00:10:04;;;;;;;13.02;1.85;;;7.40;88.50;;;;;;9174566;19;20014;-70
2023/12/23 00:13:10;;;;;;;14.77;2.10;;;7.40;88.50;;;;;;9172949;19;20006;-69
2023/12/23 00:16:17;;;;;;;12.77;2.30;;;7.50;88.60;;;;;;9174917;19;20018;-70
2023/12/23 00:19:23;;;;;;;13.23;1.42;;;7.40;88.50;;;;;;9173910;19;20366;-70
2023/12/23 00:22:33;;;;;;;11.30;2.17;;;7.40;88.50;;;;;;9173871;19;20014;-69
2023/12/23 00:25:39;;;;;;;13.65;1.80;;;7.50;88.40;;;;;;9175109;19;20037;-70
2023/12/23 00:28:46;;;;;;;13.52;2.00;;;7.50;88.40;;;;;;9174665;19;20022;-69
2023/12/23 00:31:53;;;;;;;10.95;1.50;;;7.40;88.40;;;;;;9172685;19;20019;-69
2023/12/23 00:35:00;;;;;;;15.27;1.30;;;7.40;88.30;;;;;;9173032;19;20813;-69
2023/12/23 00:38:09;;;;;;;12.20;2.60;;;7.50;88.40;;;;;;9172340;19;20021;-70
2023/12/23 00:41:17;;;;;;;6.35;1.35;;;7.50;88.40;;;;;;9172642;19;20041;-70
2023/12/23 00:44:23;;;;;;;15.55;1.85;;;7.50;88.40;;;;;;9174995;19;20090;-69
2023/12/23 00:47:31;;;;;;;9.20;2.35;;;7.50;88.30;;;;;;9173499;19;20078;-69
2023/12/23 00:50:41;;;;;;;15.20;2.63;;;7.50;88.30;;;;;;9173478;19;20053;-68
2023/12/23 00:53:51;;;;;;;10.82;1.77;;;7.50;88.30;;;;;;9170770;19;20015;-69
2023/12/23 00:56:57;;;;;;;12.02;2.08;;;7.50;88.40;;;;;;9173603;19;20034;-69
2023/12/23 01:00:05;;;;;;;11.38;2.08;;;7.50;88.30;;;;;;9171686;19;20021;-69
2023/12/23 01:03:11;;;;;;;11.95;1.88;;;7.50;88.40;;;;;;9169782;19;20408;-68
2023/12/23 01:06:19;;;;;;;15.18;2.13;;;7.50;88.20;;;;;;9172731;19;20018;-68
2023/12/23 01:09:27;;;;;;;8.43;1.65;;;7.40;88.10;;;;;;9171469;19;20026;-70
2023/12/23 01:12:34;;;;;;;12.85;1.35;;;7.40;88.10;;;;;;9170535;19;20030;-69
2023/12/23 01:15:40;;;;;;;15.07;2.25;;;7.40;88.10;;;;;;9171893;19;20078;-71
2023/12/23 01:18:47;;;;;;;4.20;1.40;;;7.50;88.20;;;;;;9173197;19;20029;-69
2023/12/23 01:21:53;;;;;;;13.10;1.40;;;7.50;88.10;;;;;;9173884;19;20018;-70
2023/12/23 01:25:03;;;;;;;6.13;1.60;;;7.40;88.10;;;;;;9173890;19;20022;-69
2023/12/23 01:28:09;;;;;;;12.48;1.80;;;7.50;88.10;;;;;;9172496;19;20015;-69
2023/12/23 01:31:17;;;;;;;11.13;1.25;;;7.40;88.00;;;;;;9173693;19;20026;-68
2023/12/23 01:34:23;;;;;;;12.38;1.20;;;7.50;88.10;;;;;;9171121;19;20014;-69
2023/12/23 01:37:31;;;;;;;8.95;1.15;;;7.40;88.00;;;;;;9173423;19;20014;-69
2023/12/23 01:40:40;;;;;;;14.50;1.80;;;7.40;87.90;;;;;;9172411;19;20464;-71
2023/12/23 01:43:48;;;;;;;8.02;1.52;;;7.40;88.00;;;;;;9171171;19;20022;-69
2023/12/23 01:46:56;;;;;;;8.98;1.30;;;7.40;87.90;;;;;;9172162;19;20015;-70
2023/12/23 01:50:04;;;;;;;10.25;1.30;;;7.40;88.00;;;;;;9172203;19;20018;-69
2023/12/23 01:53:10;;;;;;;11.05;1.55;;;7.50;88.30;;;;;;9171239;19;20018;-70
2023/12/23 01:56:20;;;;;;;17.00;1.88;;;7.40;88.00;;;;;;9168425;19;20018;-69
2023/12/23 01:59:26;;;;;;;10.93;1.15;;;7.40;88.00;;;;;;9172322;19;20022;-69
2023/12/23 02:02:38;;;;;;;8.80;1.80;;;7.40;88.00;;;;;;9166883;19;20476;-68
2023/12/23 02:05:45;;;;;;;5.78;1.10;;;7.40;88.00;;;;;;9175606;19;20488;-68
2023/12/23 02:08:53;;;;;;;8.07;1.10;;;7.40;88.00;;;;;;9181253;19;20019;-71
2023/12/23 02:12:09;;;;;;;6.78;1.70;;;7.40;88.10;;;;;;9179140;19;20011;-68
2023/12/23 02:15:18;;;;;;;7.05;1.58;;;7.40;88.00;;;;;;9178626;19;20380;-70
2023/12/23 02:18:23;;;;;;;17.17;2.33;;;7.40;88.10;;;;;;9180842;19;20018;-71
2023/12/23 02:21:37;;;;;;;6.05;1.10;;;7.40;88.00;;;;;;9178969;19;20354;-71
2023/12/23 02:24:44;;;;;;;12.75;1.27;;;7.40;88.00;;;;;;9179949;19;20618;-71
2023/12/23 02:27:56;;;;;;;6.07;1.00;;;7.40;88.00;;;;;;9180174;19;20011;-71
2023/12/23 02:31:02;;;;;;;5.65;0.63;;;7.40;88.00;;;;;;9180823;19;20044;-72
2023/12/23 02:34:10;;;;;;;7.60;1.13;;;7.40;88.40;;;;;;9177506;19;20018;-71
2023/12/23 02:37:19;;;;;;;6.60;0.93;;;7.40;88.00;;;;;;9178381;19;20022;-74
2023/12/23 02:40:26;;;;;;;6.50;0.93;;;7.40;88.00;;;;;;9178241;19;20082;-73
2023/12/23 02:43:32;;;;;;;5.25;0.63;;;7.40;88.00;;;;;;9178789;19;20010;-71
2023/12/23 02:46:40;;;;;;;12.63;2.20;;;7.40;88.60;;;;;;9180576;19;20029;-71
2023/12/23 02:49:45;;;;;;;6.78;0.90;;;7.40;88.10;;;;;;9179383;19;20025;-71
2023/12/23 02:52:55;;;;;;;7.90;1.42;;;7.50;88.10;;;;;;9176204;19;20011;-71
2023/12/23 02:56:01;;;;;;;6.30;1.45;;;7.40;88.00;;;;;;9179521;19;20103;-71
2023/12/23 02:59:10;;;;;;;3.35;0.73;;;7.40;88.00;;;;;;9178114;19;20020;-71
2023/12/23 03:02:17;;;;;;;5.47;0.93;;;7.50;88.10;;;;;;9176619;19;20025;-71
2023/12/23 03:05:25;;;;;;;6.35;1.00;;;7.40;88.10;;;;;;9178090;19;20569;-71
2023/12/23 03:08:36;;;;;;;9.70;1.77;;;7.40;88.00;;;;;;9178801;19;20397;-72
2023/12/23 03:11:44;;;;;;;3.92;0.80;;;7.40;88.10;;;;;;9179885;19;20535;-71
2023/12/23 03:14:50;;;;;;;3.47;0.95;;;7.50;88.30;;;;;;9176652;19;20014;-72
2023/12/23 03:18:00;;;;;;;4.85;0.70;;;7.40;88.00;;;;;;9177419;19;20010;-71
2023/12/23 03:21:06;;;;;;;13.60;0.70;;;7.50;88.10;;;;;;9180266;19;20029;-72
2023/12/23 03:24:16;;;;;;;3.33;0.82;;;7.50;88.20;;;;;;9176828;19;20018;-71
2023/12/23 03:27:22;;;;;;;8.32;1.88;;;7.50;88.20;;;;;;9177929;19;20751;-71
2023/12/23 03:30:30;;;;;;;5.22;0.90;;;7.50;88.30;;;;;;9178220;19;20030;-71
2023/12/23 03:33:36;;;;;;;4.65;0.75;;;7.50;88.20;;;;;;9178274;19;20023;-70
2023/12/23 03:36:43;;;;;;;9.30;1.35;;;7.50;88.30;;;;;;9180655;19;20014;-70
2023/12/23 03:39:51;;;;;;;4.88;0.68;;;7.50;88.40;;;;;;9176686;19;20014;-70
2023/12/23 03:42:59;;;;;;;4.18;0.90;;;7.50;88.40;;;;;;9178192;19;20018;-71
2023/12/23 03:46:05;;;;;;;9.68;1.20;;;7.50;88.40;;;;;;9176554;19;20015;-70
2023/12/23 03:49:12;;;;;;;3.50;0.75;;;7.50;88.50;;;;;;9176524;19;20365;-71
2023/12/23 03:52:18;;;;;;;3.08;0.70;;;7.50;88.50;;;;;;9177444;19;20475;-69
2023/12/23 03:55:32;;;;;;;2.03;0.75;;;7.50;88.80;;;;;;9176900;19;20491;-70
2023/12/23 03:58:38;;;;;;;7.25;0.90;;;7.50;88.40;;;;;;9178349;19;20019;-69
2023/12/23 04:01:46;;;;;;;5.85;0.90;;;7.60;88.50;;;;;;9178242;19;20018;-68
2023/12/23 04:04:51;;;;;;;4.82;1.15;;;7.50;88.50;;;;;;9172424;19;20037;-69
2023/12/23 04:08:02;;;;;;;4.53;0.80;;;7.50;88.40;;;;;;9174127;19;20026;-68
2023/12/23 04:11:10;;;;;;;3.40;0.70;;;7.50;88.40;;;;;;9178569;19;20015;-69
2023/12/23 04:14:18;;;;;;;3.95;0.73;;;7.50;89.10;;;;;;9176617;19;20019;-70
2023/12/23 04:17:23;;;;;;;12.43;1.10;;;7.50;88.50;;;;;;9177091;19;20487;-69
2023/12/23 04:20:31;;;;;;;5.20;0.80;;;7.50;88.60;;;;;;9175788;19;20515;-69
2023/12/23 04:23:37;;;;;;;4.32;0.85;;;7.50;88.60;;;;;;9176654;19;20602;-68
2023/12/23 04:26:48;;;;;;;2.88;0.98;;;7.50;88.60;;;;;;9176314;19;20015;-69
2023/12/23 04:29:54;;;;;;;4.72;0.85;;;7.50;88.50;;;;;;9175051;19;20018;-69
2023/12/23 04:33:02;;;;;;;4.20;0.85;;;7.50;88.50;;;;;;9174503;19;20014;-69
2023/12/23 04:36:09;;;;;;;6.57;1.20;;;7.50;88.60;;;;;;9172803;19;20013;-71
2023/12/23 04:39:17;;;;;;;2.20;0.90;;;7.50;88.60;;;;;;9176693;19;20492;-71
2023/12/23 04:42:25;;;;;;;4.65;0.85;;;7.50;88.70;;;;;;9175546;19;20014;-71
2023/12/23 04:45:33;;;;;;;5.60;1.83;;;7.50;88.80;;;;;;9174267;19;20127;-71
2023/12/23 04:48:39;;;;;;;6.50;1.33;;;7.50;88.80;;;;;;9173894;19;20018;-71
2023/12/23 04:51:47;;;;;;;2.67;0.82;;;7.50;88.80;;;;;;9175042;19;20014;-71
2023/12/23 04:54:53;;;;;;;7.03;1.30;;;7.50;88.80;;;;;;9173540;19;20022;-71
2023/12/23 04:58:04;;;;;;;4.45;1.20;;;7.50;88.80;;;;;;9174825;19;20021;-71
2023/12/23 05:01:10;;;;;;;5.90;1.10;;;7.50;88.90;;;;;;9174339;19;20022;-70
2023/12/23 05:04:17;;;;;;;2.58;1.05;;;7.50;89.10;;;;;;9171825;19;20019;-71
2023/12/23 05:07:23;;;;;;;7.32;1.40;;;7.50;89.20;;;;;;9171085;19;20014;-70
2023/12/23 05:10:31;;;;;;;3.13;1.10;;;7.60;89.40;;;;;;9174153;19;20022;-70
2023/12/23 05:13:39;;;;;;;5.20;1.30;;;7.60;89.60;;;;;;9175135;19;20078;-70
2023/12/23 05:16:47;;;;;;;4.18;1.33;;;7.60;89.80;;;;;;9173044;19;20040;-70
2023/12/23 05:19:55;;;;;;;3.33;1.45;;;7.70;89.90;;;;;;9174182;19;20014;-71
2023/12/23 05:23:02;;;;;;;4.63;1.23;;;7.80;90.00;;;;;;9175141;19;20388;-71
2023/12/23 05:26:08;;;;;;;4.93;0.88;;;7.90;90.10;;;;;;9175329;19;20730;-71
2023/12/23 05:29:19;;;;;;;6.97;1.20;;;8.00;90.20;;;;;;9174878;19;20018;-70
2023/12/23 05:32:24;;;;;;;6.32;1.38;;;8.10;90.30;;;;;;9173087;19;20016;-73
2023/12/23 05:35:36;;;;;;;10.88;1.90;;;8.20;90.30;;;;;;9174618;19;20014;-76
2023/12/23 05:38:42;;;;;;;6.47;1.20;;;8.30;90.30;;;;;;9172427;19;20052;-74
2023/12/23 05:41:52;;;;;;;10.05;1.40;;;8.30;90.30;;;;;;9179613;19;20011;-73
2023/12/23 05:45:00;;;;;;;14.98;1.70;;;8.50;90.40;;;;;;9183882;19;20022;-74
2023/12/23 05:48:09;;;;;;;8.02;1.55;;;8.50;90.50;;;;;;9183512;19;20018;-74
2023/12/23 05:51:21;;;;;;;5.18;1.73;;;8.80;90.60;;;;;;9181362;19;20023;-74
2023/12/23 05:54:28;;;;;;;10.85;2.00;;;8.70;90.40;;;;;;9181824;19;20018;-74
2023/12/23 05:57:34;;;;;;;12.93;1.63;;;8.80;90.40;;;;;;9181308;19;20019;-74
2023/12/23 06:00:44;;;;;;;4.15;1.75;;;8.80;90.40;;;;;;9183539;19;20010;-75
2023/12/23 06:03:50;;;;;;;6.07;1.40;;;8.90;90.50;;;;;;9179013;19;20047;-75
2023/12/23 06:06:59;;;;;;;10.90;2.00;;;8.90;90.50;;;;;;9180031;19;20014;-74
2023/12/23 06:10:05;;;;;;;7.72;1.38;;;9.00;90.50;;;;;;9180883;19;20017;-74
2023/12/23 06:13:12;;;;;;;8.55;2.03;;;9.00;90.30;;;;;;9183035;19;20535;-75
2023/12/23 06:16:20;;;;;;;7.85;1.38;;;9.10;90.50;;;;;;9182210;19;20014;-74
2023/12/23 06:19:29;;;;;;;7.28;1.42;;;9.20;90.60;;;;;;9182260;19;20077;-74
2023/12/23 06:22:35;;;;;;;6.78;1.98;;;9.20;90.60;;;;;;9181308;19;20017;-73
2023/12/23 06:25:43;;;;;;;5.05;1.30;;;9.20;90.60;;;;;;9182069;19;20022;-74
2023/12/23 06:28:49;;;;;;;2.97;1.13;;;9.30;90.60;;;;;;9178469;19;20064;-74
2023/12/23 06:32:00;;;;;;;9.80;1.73;;;9.30;90.60;;;;;;9178314;19;20022;-74
2023/12/23 06:35:06;;;;;;;9.15;1.65;;;9.40;90.60;;;;;;9178953;19;20025;-75
2023/12/23 06:38:15;;;;;;;19.67;1.50;;;9.40;90.60;;;;;;9178552;19;20026;-73
2023/12/23 06:41:21;;;;;;;11.90;2.20;;;9.40;90.60;;;;;;9182057;19;20022;-74
2023/12/23 06:44:29;;;;;;;7.55;1.50;;;9.50;90.70;;;;;;9182170;19;20029;-74
2023/12/23 06:47:37;;;;;;;8.05;1.52;;;9.50;90.70;;;;;;9181583;19;20014;-74
2023/12/23 06:50:45;;;;;;;12.48;2.45;;;9.50;90.70;;;;;;9181875;19;20494;-74
2023/12/23 06:53:51;;;;;;;9.60;1.85;;;9.60;90.70;;;;;;9181418;19;20017;-74
2023/12/23 06:56:59;;;;;;;8.38;1.90;;;9.60;90.70;;;;;;9180680;19;20018;-75
2023/12/23 07:00:05;;;;;;;12.30;1.90;;;9.60;90.70;;;;;;9181274;19;20010;-74
2023/12/23 07:03:15;;;;;;;11.32;1.83;;;9.60;90.70;;;;;;9176140;19;20483;-74
2023/12/23 07:06:21;;;;;;;8.23;2.03;;;9.70;90.80;;;;;;9178866;19;20014;-74
2023/12/23 07:09:28;;;;;;;15.18;1.73;;;9.70;90.70;;;;;;9180241;19;20034;-74
2023/12/23 07:12:34;;;;;;;11.80;2.13;;;9.70;90.70;;;;;;9179454;19;20636;-74
2023/12/23 07:15:42;;;;;;;9.82;2.08;;;9.70;90.70;;;;;;9180231;19;20019;-74
2023/12/23 07:18:50;;;;;;;10.27;1.90;;;9.80;90.80;;;;;;9178739;19;20013;-74
2023/12/23 07:21:58;;;;;;;11.73;2.03;;;9.80;90.80;;;;;;9177682;19;20353;-74
2023/12/23 07:25:05;;;;;;;11.02;2.10;;;9.80;90.80;;;;;;9179592;19;20011;-74
2023/12/23 07:28:12;;;;;;;12.30;2.00;;;9.80;90.80;;;;;;9180692;19;20018;-74
2023/12/23 07:31:18;;;;;;;9.13;1.90;;;9.80;90.80;;;;;;9180281;19;20496;-74
2023/12/23 07:34:28;;;;;;;18.83;2.83;;;9.80;90.80;;;;;;9177135;19;20013;-74
2023/12/23 07:37:33;;;;;;;8.55;2.35;;;9.80;90.80;;;;;;9175737;19;20018;-74
2023/12/23 07:40:41;;;;;;;14.20;3.88;;;9.80;91.10;;;;;;9179992;19;20486;-73
2023/12/23 07:43:47;;;;;;;16.05;2.55;;;9.90;90.90;;;;;;9177926;19;20489;-73
2023/12/23 07:46:55;;;;;;;15.93;2.30;;;9.80;90.80;;;;;;9177032;19;20014;-74
2023/12/23 07:50:03;;;;;;;18.05;3.60;;;9.90;90.90;;;;;;9178370;19;20018;-73
2023/12/23 07:53:11;;;;;;;10.70;2.67;;;9.90;90.90;;;;;;9178002;19;20015;-73
2023/12/23 07:56:17;;;;;;;12.50;2.53;;;9.90;90.90;;;;;;9177641;19;20042;-73
2023/12/23 07:59:24;;;;;;;12.77;2.45;;;10.00;90.90;;;;;;9178132;19;20389;-73
2023/12/23 08:02:30;;;;;;;18.55;2.45;;;10.00;90.90;;;;;;9173042;19;20048;-74
2023/12/23 08:05:40;;;;;;;12.10;2.22;;;10.00;90.90;;;;;;9176748;19;20029;-73
2023/12/23 08:08:46;;;;;;;15.05;2.58;;;10.00;90.90;;;;;;9177507;19;20014;-69
2023/12/23 08:11:53;;;;;;;12.50;1.95;;;10.00;90.90;;;;;;9178557;19;20034;-71
2023/12/23 08:14:59;;;;;;;20.95;2.40;;;10.00;90.90;;;;;;9175167;19;20018;-70
2023/12/23 08:18:07;;;;;;;17.17;2.92;;;10.00;90.90;;;;;;9175573;19;20026;-69
2023/12/23 08:21:15;;;;;;;23.38;4.53;;;10.00;90.90;;;;;;9177432;19;20536;-69
2023/12/23 08:24:26;;;;;;;16.15;3.70;;;10.10;90.90;;;;;;9176868;19;20035;-69
2023/12/23 08:27:31;;;;;;;23.25;3.53;;;10.10;90.90;;;;;;9176203;19;20417;-68
2023/12/23 08:30:39;;;;;;;15.25;5.00;;;10.10;90.90;;;;;;9172714;19;20011;-69
2023/12/23 08:33:44;;;;;;;13.40;3.80;;;10.10;91.00;;;;;;9176945;19;20022;-70
2023/12/23 08:36:55;;;;;;;14.45;2.20;;;10.10;91.20;;;;;;9175111;19;20041;-69
2023/12/23 08:40:00;;;;;;;18.60;2.40;;;10.10;91.00;;;;;;9176285;19;20019;-70
2023/12/23 08:43:08;;;;;;;12.18;1.80;;;10.10;91.00;;;;;;9173221;19;20014;-71
2023/12/23 08:46:13;;;;;;;15.95;2.22;;;10.10;91.00;;;;;;9173705;19;20026;-68
2023/12/23 08:49:21;;;;;;;14.23;2.95;;;10.10;91.00;;;;;;9173606;19;20079;-67
2023/12/23 08:52:29;;;;;;;13.40;3.15;;;10.10;91.00;;;;;;9174212;19;20025;-68
2023/12/23 08:55:37;;;;;;;16.05;2.50;;;10.10;91.00;;;;;;9171434;19;20591;-69
2023/12/23 08:58:42;;;;;;;14.18;3.70;;;10.10;91.00;;;;;;9174268;19;20301;-70
2023/12/23 09:01:50;;;;;;;12.35;3.28;;;10.10;91.00;;;;;;9175326;19;20022;-70
2023/12/23 09:04:55;;;;;;;17.00;2.67;;;10.10;91.00;;;;;;9171573;19;20025;-71
2023/12/23 09:08:06;;;;;;;18.90;2.85;;;10.20;91.00;;;;;;9174010;19;20090;-70
2023/12/23 09:11:12;;;;;;;18.60;4.60;;;10.20;91.00;;;;;;9177036;19;20498;-77
2023/12/23 09:14:45;;;;;;;21.35;2.95;;;10.20;91.00;;;;;;9176687;19;20056;-77
2023/12/23 09:17:57;;;;;;;19.67;2.40;;;10.20;91.00;;;;;;9180265;19;20138;-77
2023/12/23 09:21:05;;;;;;;11.02;2.60;;;10.20;91.20;;;;;;9183866;19;20021;-77
2023/12/23 09:24:13;;;;;;;18.85;3.38;;;10.20;91.00;;;;;;9181162;19;20022;-77
2023/12/23 09:27:21;;;;;;;15.38;2.35;;;10.20;91.00;;;;;;9180496;19;20026;-77
2023/12/23 09:30:29;;;;;;;15.23;1.98;;;10.20;91.00;;;;;;9179912;19;20026;-77
2023/12/23 09:33:38;;;;;;;12.52;2.50;;;10.20;91.00;;;;;;9183639;19;20362;-77
2023/12/23 09:36:44;;;;;;;14.88;2.15;;;10.20;91.00;;;;;;9183798;19;20082;-78
2023/12/23 09:39:55;;;;;;;23.98;3.30;;;10.20;91.00;;;;;;9183040;19;20019;-77
2023/12/23 09:43:01;;;;;;;12.50;3.33;;;10.20;91.00;;;;;;9183685;19;20038;-77
2023/12/23 09:46:10;;;;;;;18.08;3.80;;;10.20;90.90;;;;;;9184266;19;20050;-76
2023/12/23 09:49:16;;;;;;;16.25;3.63;;;10.20;90.90;;;;;;9182175;19;20011;-77
2023/12/23 09:52:24;;;;;;;24.13;5.03;;;10.20;91.00;;;;;;9181665;19;20007;-77
2023/12/23 09:55:35;;;;;;;26.88;7.95;;;10.20;91.00;;;;;;9181906;19;20010;-77
2023/12/23 09:58:45;;;;;;;24.38;4.78;;;10.20;91.00;;;;;;9179444;19;20018;-77
2023/12/23 10:01:51;;;;;;;18.58;3.05;;;10.20;91.00;;;;;;9184778;19;20044;-77
2023/12/23 10:04:58;;;;;;;20.95;2.72;;;10.20;91.00;;;;;;9176825;19;20022;-77
2023/12/23 10:08:09;;;;;;;24.83;2.85;;;10.20;91.00;;;;;;9181135;19;20024;-76
2023/12/23 10:11:32;;;;;;;11.10;1.95;;;10.20;91.00;;;;;;9179780;19;20106;-76
2023/12/23 10:14:41;;;;;;;15.82;2.35;;;10.20;91.00;;;;;;9182326;19;20019;-76
2023/12/23 10:17:47;;;;;;;14.40;1.98;;;10.20;91.00;;;;;;9182610;19;20099;-76
2023/12/23 10:20:55;;;;;;;19.08;3.03;;;10.20;91.00;;;;;;9182936;19;20018;-77
2023/12/23 10:24:04;;;;;;;13.45;2.63;;;10.20;91.00;;;;;;9180289;19;20019;-76
2023/12/23 10:27:18;;;;;;;14.82;3.55;;;10.20;91.00;;;;;;9182273;19;20017;-77
2023/12/23 10:30:27;;;;;;;21.42;2.58;;;10.20;91.10;;;;;;9183978;19;20029;-76
2023/12/23 10:33:41;;;;;;;18.98;2.78;;;10.20;91.10;;;;;;9182876;19;20693;-77
2023/12/23 10:36:50;;;;;;;16.30;1.85;;;10.20;91.10;;;;;;9183466;19;20010;-77
2023/12/23 10:40:04;;;;;;;15.18;2.17;;;10.20;91.10;;;;;;9179814;19;20019;-76
2023/12/23 10:43:20;;;;;;;16.80;2.97;;;10.20;91.10;;;;;;9183399;19;20690;-77
2023/12/23 10:46:28;;;;;;;13.80;3.08;;;10.20;91.10;;;;;;9180773;19;20022;-77
2023/12/23 10:49:40;;;;;;;18.50;2.28;;;10.20;91.10;;;;;;9182027;19;20269;-76
2023/12/23 10:52:52;;;;;;;15.48;2.45;;;10.20;91.10;;;;;;9181847;19;20013;-76
2023/12/23 10:56:01;;;;;;;13.80;2.15;;;10.20;91.10;;;;;;9182130;19;20010;-77
2023/12/23 10:59:16;;;;;;;16.85;3.35;;;10.20;91.10;;;;;;9179848;19;20018;-77
2023/12/23 11:02:29;;;;;;;13.88;2.85;;;10.20;91.10;;;;;;9179855;19;20506;-76
2023/12/23 11:05:44;;;;;;;16.85;2.90;;;10.20;91.10;;;;;;9181736;19;20517;-76
2023/12/23 11:08:56;;;;;;;11.95;2.17;;;10.20;91.10;;;;;;9184115;19;20048;-76
2023/12/23 11:12:12;;;;;;;28.13;3.28;;;10.20;91.10;;;;;;9181470;19;20019;-76
2023/12/23 11:15:26;;;;;;;12.05;1.90;;;10.20;91.10;;;;;;9180247;19;20043;-77
2023/12/23 11:18:37;;;;;;;15.32;1.48;;;10.30;91.10;;;;;;9179639;19;20015;-77
2023/12/23 11:21:44;;;;;;;16.55;2.90;;;10.30;91.10;;;;;;9178846;19;20863;-76
2023/12/23 11:24:51;;;;;;;14.70;2.40;;;10.20;91.10;;;;;;9181622;19;20010;-76
2023/12/23 11:28:11;;;;;;;19.83;2.42;;;10.30;91.10;;;;;;9179990;19;20007;-76
2023/12/23 11:31:24;;;;;;;14.13;2.03;;;10.30;91.10;;;;;;9179577;19;20033;-77
2023/12/23 11:34:31;;;;;;;12.23;1.88;;;10.30;91.10;;;;;;9179616;19;20023;-76
2023/12/23 11:37:57;;;;;;;11.02;1.85;;;10.30;91.10;;;;;;9176697;19;20542;-77
2023/12/23 11:41:03;;;;;;;15.95;2.15;;;10.30;91.10;;;;;;9177902;19;20003;-76
2023/12/23 11:44:13;;;;;;;17.00;2.22;;;10.30;91.10;;;;;;9179416;19;20025;-76
2023/12/23 11:47:23;;;;;;;14.50;2.17;;;10.30;91.20;;;;;;9177352;19;20471;-77
2023/12/23 11:50:30;;;;;;;19.80;2.47;;;10.30;91.20;;;;;;9177867;19;20006;-77
2023/12/23 11:53:36;;;;;;;8.40;2.17;;;10.30;91.10;;;;;;9179303;19;20353;-78
2023/12/23 11:56:46;;;;;;;17.98;3.92;;;10.30;91.10;;;;;;9179449;19;20015;-77
2023/12/23 11:59:52;;;;;;;19.88;2.65;;;10.30;91.10;;;;;;9178726;19;20006;-77
2023/12/23 12:03:03;;;;;;;16.00;2.10;;;10.40;91.20;;;;;;9170548;19;20021;-79
2023/12/23 12:06:09;;;;;;;17.45;3.17;;;10.40;91.10;;;;;;9173562;19;20034;-77
2023/12/23 12:09:17;;;;;;;15.60;2.50;;;10.40;91.10;;;;;;9176627;19;20011;-77
2023/12/23 12:12:23;;;;;;;18.25;2.15;;;10.40;91.10;;;;;;9179510;19;20034;-77
2023/12/23 12:15:31;;;;;;;17.02;2.70;;;10.40;91.10;;;;;;9176396;19;20022;-77
2023/12/23 12:18:42;;;;;;;19.27;2.38;;;10.50;91.10;;;;;;9178424;19;20491;-77
2023/12/23 12:21:52;;;;;;;23.05;2.78;;;10.50;91.40;;;;;;9179128;19;20014;-77
2023/12/23 12:25:00;;;;;;;9.32;2.20;;;10.50;91.10;;;;;;9178665;19;20572;-77
2023/12/23 12:28:09;;;;;;;23.92;5.45;;;10.50;91.10;;;;;;9179865;19;20472;-77
2023/12/23 12:31:23;;;;;;;21.02;3.28;;;10.50;91.10;;;;;;9178947;19;20697;-77
2023/12/23 12:34:54;;;;;;;21.33;3.28;;;10.50;91.10;;;;;;9179637;19;20022;-77
2023/12/23 12:38:00;;;;;;;11.25;3.15;;;10.60;91.10;;;;;;9176742;19;20021;-77
2023/12/23 12:41:24;;;;;;;18.60;3.55;;;10.60;91.10;;;;;;9175532;19;20021;-77
2023/12/23 12:44:35;;;;;;;22.08;3.28;;;10.60;91.10;;;;;;9178379;19;20010;-78
2023/12/23 12:47:47;;;;;;;24.25;2.60;;;10.60;91.10;;;;;;9176483;19;20010;-77
2023/12/23 12:50:57;;;;;;;17.38;2.72;;;10.60;91.00;;;;;;9177875;19;20034;-77
2023/12/23 12:54:11;;;;;;;22.00;2.25;;;10.60;91.00;;;;;;9179174;19;20010;-78
2023/12/23 12:57:18;;;;;;;19.35;2.65;;;10.60;91.00;;;;;;9178011;19;20018;-78
2023/12/23 13:00:26;;;;;;;11.27;1.77;;;10.60;91.00;;;;;;9177346;19;20026;-77
2023/12/23 13:03:42;;;;;;;14.27;2.17;;;10.70;91.00;;;;;;9172406;19;20029;-77
2023/12/23 13:07:06;;;;;;;13.13;2.83;;;10.70;90.90;;;;;;9177152;19;20014;-77
2023/12/23 13:10:12;;;;;;;9.90;2.33;;;10.70;90.90;;;;;;9174130;19;20015;-77
2023/12/23 13:13:24;;;;;;;12.93;2.80;;;10.70;90.90;;;;;;9176136;19;20364;-76
2023/12/23 13:16:29;;;;;;;11.90;2.05;;;10.70;90.90;;;;;;9176748;19;20010;-78
2023/12/23 13:19:41;;;;;;;10.77;2.75;;;10.70;90.90;;;;;;9177265;19;20345;-76
2023/12/23 13:22:49;;;;;;;20.13;3.65;;;10.60;90.90;;;;;;9176037;19;20014;-77
2023/12/23 13:25:57;;;;;;;8.48;2.00;;;10.70;90.90;;;;;;9177208;19;20014;-76
2023/12/23 13:29:15;;;;;;;7.97;1.50;;;10.70;90.90;;;;;;9176137;19;20019;-76
2023/12/23 13:32:26;;;;;;;5.32;1.17;;;10.70;90.90;;;;;;9174257;19;20029;-77
2023/12/23 13:35:32;;;;;;;14.15;1.83;;;10.70;90.90;;;;;;9174685;19;20025;-77
2023/12/23 13:38:45;;;;;;;14.20;2.35;;;10.70;90.90;;;;;;9173644;19;20392;-77
2023/12/23 13:41:51;;;;;;;9.50;1.67;;;10.60;90.90;;;;;;9173938;19;20014;-77
2023/12/23 13:45:00;;;;;;;11.68;1.48;;;10.60;90.90;;;;;;9173213;19;20022;-77
2023/12/23 13:48:06;;;;;;;20.77;2.28;;;10.60;90.90;;;;;;9174572;19;20537;-77
2023/12/23 13:51:15;;;;;;;14.43;2.50;;;10.60;90.90;;;;;;9175736;19;20026;-77
2023/12/23 13:54:23;;;;;;;13.35;2.20;;;10.60;90.80;;;;;;9173849;19;20030;-76
2023/12/23 13:57:30;;;;;;;7.97;1.70;;;10.60;90.90;;;;;;9175283;19;20015;-79
2023/12/23 14:00:36;;;;;;;10.98;1.70;;;10.60;90.90;;;;;;9174214;19;20049;-79
2023/12/23 14:03:47;;;;;;;11.10;1.65;;;10.60;90.90;;;;;;9182139;19;20015;-79
2023/12/23 14:06:53;;;;;;;14.13;2.65;;;10.60;91.10;;;;;;9178405;19;20014;-79
2023/12/23 14:10:07;;;;;;;18.50;1.95;;;10.60;90.90;;;;;;9185931;19;20120;-79
2023/12/23 14:13:13;;;;;;;11.52;1.70;;;10.60;90.80;;;;;;9185524;19;20006;-79
2023/12/23 14:16:21;;;;;;;10.63;1.90;;;10.60;90.80;;;;;;9183204;19;20744;-79
2023/12/23 14:19:30;;;;;;;11.98;1.88;;;10.60;90.80;;;;;;9182131;19;20014;-79
2023/12/23 14:22:44;;;;;;;11.45;1.60;;;10.60;90.80;;;;;;9183206;19;20015;-79
2023/12/23 14:25:56;;;;;;;17.30;2.55;;;10.60;90.80;;;;;;9184789;19;20018;-79
2023/12/23 14:29:21;;;;;;;11.82;2.45;;;10.60;90.80;;;;;;9183436;19;20417;-79
2023/12/23 14:32:40;;;;;;;15.77;1.88;;;10.60;90.80;;;;;;9182648;19;20010;-78
2023/12/23 14:35:51;;;;;;;15.55;2.05;;;10.60;90.80;;;;;;9184249;19;20024;-79
2023/12/23 14:39:02;;;;;;;11.15;2.03;;;10.60;91.10;;;;;;9183830;19;20021;-79
2023/12/23 14:42:21;;;;;;;18.40;1.63;;;10.60;90.80;;;;;;9179041;19;20010;-79
2023/12/23 14:45:28;;;;;;;17.52;2.05;;;10.60;90.80;;;;;;9182951;19;20011;-78
2023/12/23 14:48:39;;;;;;;18.35;2.55;;;10.60;90.70;;;;;;9180796;19;20014;-79
2023/12/23 14:51:46;;;;;;;15.60;2.30;;;10.60;90.80;;;;;;9180797;19;20019;-79
2023/12/23 14:55:01;;;;;;;10.00;1.50;;;10.60;90.80;;;;;;9181421;19;20019;-79
2023/12/23 14:58:19;;;;;;;13.02;1.58;;;10.60;91.00;;;;;;9180542;19;20494;-80
2023/12/23 15:01:36;;;;;;;16.13;1.45;;;10.60;90.80;;;;;;9177201;19;20014;-79
2023/12/23 15:04:45;;;;;;;11.32;1.27;;;10.60;90.80;;;;;;9176118;19;20019;-79
2023/12/23 15:08:06;;;;;;;13.95;1.73;;;10.60;90.80;;;;;;9179530;19;20030;-76
2023/12/23 15:11:14;;;;;;;8.95;1.50;;;10.60;90.80;;;;;;9180819;19;20006;-76
2023/12/23 15:14:29;;;;;;;9.88;2.03;;;10.50;90.80;;;;;;9179587;19;20488;-77
2023/12/23 15:17:37;;;;;;;13.50;1.80;;;10.60;90.80;;;;;;9180965;19;20010;-82
2023/12/23 15:20:45;;;;;;;13.55;2.20;;;10.60;90.80;;;;;;9180530;19;20026;-71
2023/12/23 15:23:50;;;;;;;15.40;1.92;;;10.60;90.80;;;;;;9179052;19;20371;-71
2023/12/23 15:26:58;;;;;;;10.57;1.83;;;10.60;90.80;;;;;;9177871;19;20022;-70
2023/12/23 15:30:07;;;;;;;13.30;1.70;;;10.60;90.80;;;;;;9177572;19;20060;-71
2023/12/23 15:33:14;;;;;;;14.30;2.13;;;10.60;90.80;;;;;;9178906;19;20029;-71
2023/12/23 15:36:20;;;;;;;26.35;3.08;;;10.60;90.80;;;;;;9179913;19;20472;-70
2023/12/23 15:39:27;;;;;;;9.27;1.60;;;10.60;90.80;;;;;;9177752;19;20010;-70
2023/12/23 15:42:40;;;;;;;14.38;2.17;;;10.60;90.80;;;;;;9176968;19;20014;-73
2023/12/23 15:45:59;;;;;;;12.18;2.00;;;10.60;90.80;;;;;;9179833;19;20506;-73
2023/12/23 15:49:11;;;;;;;14.15;2.05;;;10.60;90.80;;;;;;9174856;19;20026;-71
2023/12/23 15:52:24;;;;;;;8.15;2.13;;;10.60;90.80;;;;;;9177482;19;20026;-70
2023/12/23 15:55:40;;;;;;;10.00;2.65;;;10.50;90.80;;;;;;9177784;19;20018;-71
2023/12/23 15:58:50;;;;;;;6.40;1.75;;;10.50;90.80;;;;;;9176884;19;20026;-71
2023/12/23 16:02:00;;;;;;;12.77;2.70;;;10.50;90.80;;;;;;9176151;19;20014;-71
2023/12/23 16:05:15;;;;;;;16.67;3.20;;;10.50;90.80;;;;;;9177079;19;20010;-71
2023/12/23 16:08:22;;;;;;;12.85;3.00;;;10.50;90.80;;;;;;9176038;19;20745;-71
2023/12/23 16:11:35;;;;;;;12.45;2.50;;;10.50;90.80;;;;;;9176657;19;20022;-71
2023/12/23 16:14:41;;;;;;;12.70;2.47;;;10.50;90.80;;;;;;9177636;19;20611;-73
2023/12/23 16:17:52;;;;;;;10.75;2.35;;;10.50;90.80;;;;;;9179627;19;20658;-76
2023/12/23 16:20:57;;;;;;;10.95;2.15;;;10.50;90.80;;;;;;9183996;19;20013;-74